EAG501 SBEG-SKRG
Flight info
| Callsign | EAG501 |
|---|---|
| Flight time | 2h 42m |
| Altitude | 38000 |
| Route | SINUN UP527 EGDUK/N0471F400 UP527 ORIBO UL201 LONAX UM782 EJA/N0445F240 W26 DIPRA DIPRA3B |
| Aircraft | A332/H-SDE2E3FGHIJ4J5M1RWXY/LB1D1 |
Departure
| Time | 2026-05-08 10:54 |
|---|---|
| Airport | Eduardo Gomes International Airport (SBEG) |
Arrival
| Time | 2026-05-08 13:37 |
|---|---|
| Airport | Jose Maria Córdova International Airport (SKRG) |
| Time | Latitude | Longitude | Altitude | Speed | Heading |
|---|---|---|---|---|---|
| 2026-05-08 10:47 | -3.03220 | -60.04289 | 273 ft | 0 kts | 343° |
| 2026-05-08 10:48 | -3.03234 | -60.04285 | 273 ft | 4 kts | 346° |
| 2026-05-08 10:48 | -3.03257 | -60.04279 | 277 ft | 4 kts | 343° |
| 2026-05-08 10:49 | -3.03275 | -60.04266 | 276 ft | 4 kts | 281° |
| 2026-05-08 10:49 | -3.03274 | -60.04241 | 277 ft | 3 kts | 256° |
| 2026-05-08 10:49 | -3.03273 | -60.04238 | 277 ft | 0 kts | 255° |
| 2026-05-08 10:51 | -3.03276 | -60.04247 | 276 ft | 7 kts | 255° |
| 2026-05-08 10:51 | -3.03296 | -60.04321 | 273 ft | 13 kts | 255° |
| 2026-05-08 10:51 | -3.03321 | -60.04397 | 273 ft | 2 kts | 225° |
| 2026-05-08 10:51 | -3.03343 | -60.04392 | 273 ft | 11 kts | 164° |
| 2026-05-08 10:52 | -3.03432 | -60.04361 | 273 ft | 14 kts | 156° |
| 2026-05-08 10:52 | -3.03520 | -60.04301 | 273 ft | 17 kts | 135° |
| 2026-05-08 10:52 | -3.03587 | -60.04192 | 273 ft | 20 kts | 109° |
| 2026-05-08 10:52 | -3.03628 | -60.04047 | 273 ft | 23 kts | 105° |
| 2026-05-08 10:53 | -3.03671 | -60.03884 | 273 ft | 25 kts | 104° |
| 2026-05-08 10:53 | -3.03767 | -60.03770 | 274 ft | 11 kts | 168° |
| 2026-05-08 10:53 | -3.03844 | -60.03776 | 273 ft | 10 kts | 215° |
| 2026-05-08 10:53 | -3.03863 | -60.03842 | 273 ft | 10 kts | 273° |
| 2026-05-08 10:54 | -3.03860 | -60.04033 | 274 ft | 62 kts | 270° |
| 2026-05-08 10:54 | -3.03860 | -60.04715 | 274 ft | 134 kts | 270° |
| 2026-05-08 10:54 | -3.03862 | -60.05860 | 385 ft | 185 kts | 271° |
| 2026-05-08 10:54 | -3.03903 | -60.07147 | 1228 ft | 187 kts | 268° |
| 2026-05-08 10:55 | -3.03986 | -60.08466 | 2185 ft | 194 kts | 268° |
| 2026-05-08 10:55 | -3.04078 | -60.09882 | 2883 ft | 214 kts | 269° |
| 2026-05-08 10:55 | -3.04015 | -60.11408 | 3458 ft | 229 kts | 278° |
| 2026-05-08 10:55 | -3.03856 | -60.13103 | 3836 ft | 256 kts | 276° |
| 2026-05-08 10:56 | -3.03734 | -60.14922 | 4480 ft | 268 kts | 275° |
| 2026-05-08 10:56 | -3.03651 | -60.16813 | 5281 ft | 275 kts | 274° |
| 2026-05-08 10:56 | -3.03589 | -60.18731 | 6049 ft | 282 kts | 273° |
| 2026-05-08 10:56 | -3.03537 | -60.20711 | 6799 ft | 287 kts | 272° |
| 2026-05-08 10:57 | -3.03491 | -60.22722 | 7586 ft | 291 kts | 272° |
| 2026-05-08 10:57 | -3.03447 | -60.24764 | 8403 ft | 294 kts | 272° |
| 2026-05-08 10:57 | -3.03361 | -60.28919 | 10039 ft | 302 kts | 272° |
| 2026-05-08 10:58 | -3.03316 | -60.31064 | 10509 ft | 317 kts | 272° |
| 2026-05-08 10:58 | -3.03153 | -60.33302 | 10817 ft | 334 kts | 280° |
| 2026-05-08 10:58 | -3.02529 | -60.35591 | 11121 ft | 350 kts | 293° |
| 2026-05-08 10:58 | -3.01466 | -60.37844 | 11426 ft | 365 kts | 298° |
| 2026-05-08 10:59 | -3.00263 | -60.40144 | 11763 ft | 378 kts | 299° |
| 2026-05-08 10:59 | -2.99040 | -60.42468 | 12244 ft | 385 kts | 298° |
| 2026-05-08 10:59 | -2.97786 | -60.44866 | 12809 ft | 390 kts | 298° |
| 2026-05-08 10:59 | -2.96523 | -60.47291 | 13410 ft | 394 kts | 298° |
| 2026-05-08 11:00 | -2.95251 | -60.49738 | 13975 ft | 397 kts | 298° |
| 2026-05-08 11:00 | -2.93967 | -60.52213 | 14476 ft | 402 kts | 298° |
| 2026-05-08 11:00 | -2.92688 | -60.54678 | 14963 ft | 406 kts | 298° |
| 2026-05-08 11:00 | -2.91386 | -60.57190 | 15502 ft | 410 kts | 298° |
| 2026-05-08 11:01 | -2.90063 | -60.59742 | 16038 ft | 413 kts | 298° |
| 2026-05-08 11:01 | -2.88733 | -60.62309 | 16563 ft | 417 kts | 298° |
| 2026-05-08 11:01 | -2.87389 | -60.64901 | 17097 ft | 421 kts | 298° |
| 2026-05-08 11:01 | -2.86033 | -60.67518 | 17625 ft | 425 kts | 298° |
| 2026-05-08 11:02 | -2.84680 | -60.70126 | 18165 ft | 429 kts | 298° |
| 2026-05-08 11:02 | -2.81895 | -60.75498 | 19074 ft | 437 kts | 298° |
| 2026-05-08 11:02 | -2.80494 | -60.78201 | 19630 ft | 437 kts | 298° |
| 2026-05-08 11:03 | -2.79104 | -60.80881 | 20073 ft | 441 kts | 298° |
| 2026-05-08 11:03 | -2.77681 | -60.83626 | 20469 ft | 445 kts | 298° |
| 2026-05-08 11:03 | -2.76245 | -60.86395 | 20886 ft | 449 kts | 298° |
| 2026-05-08 11:03 | -2.74798 | -60.89184 | 21292 ft | 453 kts | 298° |
| 2026-05-08 11:04 | -2.73336 | -60.92003 | 21706 ft | 457 kts | 298° |
| 2026-05-08 11:04 | -2.71868 | -60.94834 | 22114 ft | 461 kts | 298° |
| 2026-05-08 11:04 | -2.70384 | -60.97693 | 22501 ft | 464 kts | 298° |
| 2026-05-08 11:04 | -2.68889 | -61.00576 | 22882 ft | 468 kts | 298° |
| 2026-05-08 11:05 | -2.67403 | -61.03439 | 23262 ft | 472 kts | 298° |
| 2026-05-08 11:05 | -2.65885 | -61.06366 | 23665 ft | 473 kts | 298° |
| 2026-05-08 11:05 | -2.64364 | -61.09297 | 24052 ft | 475 kts | 298° |
| 2026-05-08 11:05 | -2.62840 | -61.12234 | 24417 ft | 476 kts | 298° |
| 2026-05-08 11:06 | -2.61310 | -61.15183 | 24781 ft | 478 kts | 298° |
| 2026-05-08 11:06 | -2.59777 | -61.18137 | 25143 ft | 480 kts | 297° |
| 2026-05-08 11:06 | -2.58253 | -61.21075 | 25500 ft | 481 kts | 297° |
| 2026-05-08 11:06 | -2.56783 | -61.24097 | 25867 ft | 483 kts | 294° |
| 2026-05-08 11:07 | -2.55472 | -61.27207 | 26224 ft | 484 kts | 292° |
| 2026-05-08 11:07 | -2.54229 | -61.30355 | 26588 ft | 486 kts | 291° |
| 2026-05-08 11:07 | -2.52997 | -61.33517 | 26942 ft | 488 kts | 291° |
| 2026-05-08 11:07 | -2.51761 | -61.36651 | 27315 ft | 489 kts | 291° |
| 2026-05-08 11:08 | -2.50486 | -61.39823 | 27666 ft | 490 kts | 291° |
| 2026-05-08 11:08 | -2.49208 | -61.42956 | 27996 ft | 492 kts | 292° |
| 2026-05-08 11:08 | -2.47901 | -61.46123 | 28325 ft | 494 kts | 292° |
| 2026-05-08 11:08 | -2.46572 | -61.49328 | 28651 ft | 496 kts | 292° |
| 2026-05-08 11:09 | -2.45260 | -61.52485 | 28963 ft | 497 kts | 292° |
| 2026-05-08 11:09 | -2.43927 | -61.55691 | 29263 ft | 499 kts | 292° |
| 2026-05-08 11:09 | -2.42592 | -61.58904 | 29581 ft | 501 kts | 292° |
| 2026-05-08 11:09 | -2.41253 | -61.62126 | 29973 ft | 500 kts | 291° |
| 2026-05-08 11:10 | -2.39920 | -61.65336 | 30365 ft | 498 kts | 291° |
| 2026-05-08 11:10 | -2.38594 | -61.68531 | 30751 ft | 496 kts | 291° |
| 2026-05-08 11:10 | -2.37273 | -61.71714 | 31137 ft | 494 kts | 291° |
| 2026-05-08 11:10 | -2.35955 | -61.74891 | 31517 ft | 492 kts | 291° |
| 2026-05-08 11:11 | -2.34664 | -61.78002 | 31896 ft | 489 kts | 291° |
| 2026-05-08 11:11 | -2.33362 | -61.81137 | 32304 ft | 486 kts | 291° |
| 2026-05-08 11:11 | -2.32066 | -61.84259 | 32664 ft | 484 kts | 291° |
| 2026-05-08 11:11 | -2.30775 | -61.87370 | 33010 ft | 483 kts | 291° |
| 2026-05-08 11:12 | -2.29485 | -61.90477 | 33360 ft | 481 kts | 291° |
| 2026-05-08 11:12 | -2.28201 | -61.93570 | 33687 ft | 479 kts | 290° |
| 2026-05-08 11:12 | -2.26925 | -61.96644 | 34020 ft | 478 kts | 290° |
| 2026-05-08 11:12 | -2.25666 | -61.99677 | 34269 ft | 477 kts | 290° |
| 2026-05-08 11:13 | -2.24393 | -62.02743 | 34481 ft | 477 kts | 290° |
| 2026-05-08 11:13 | -2.23121 | -62.05805 | 34700 ft | 477 kts | 290° |
| 2026-05-08 11:13 | -2.21846 | -62.08877 | 34919 ft | 476 kts | 290° |
| 2026-05-08 11:13 | -2.20576 | -62.11947 | 35151 ft | 476 kts | 290° |
| 2026-05-08 11:14 | -2.19325 | -62.14963 | 35376 ft | 476 kts | 291° |
| 2026-05-08 11:14 | -2.18054 | -62.18020 | 35602 ft | 475 kts | 291° |
| 2026-05-08 11:14 | -2.16783 | -62.21078 | 35814 ft | 475 kts | 291° |
| 2026-05-08 11:14 | -2.15511 | -62.24139 | 36016 ft | 475 kts | 291° |
| 2026-05-08 11:15 | -2.14242 | -62.27194 | 36202 ft | 475 kts | 291° |
| 2026-05-08 11:15 | -2.12988 | -62.30214 | 36388 ft | 475 kts | 291° |
| 2026-05-08 11:15 | -2.11719 | -62.33269 | 36609 ft | 475 kts | 291° |
| 2026-05-08 11:15 | -2.10454 | -62.36315 | 36802 ft | 474 kts | 291° |
| 2026-05-08 11:16 | -2.09186 | -62.39367 | 36996 ft | 474 kts | 291° |
| 2026-05-08 11:16 | -2.07922 | -62.42412 | 37189 ft | 474 kts | 291° |
| 2026-05-08 11:16 | -2.06658 | -62.45454 | 37386 ft | 473 kts | 291° |
| 2026-05-08 11:16 | -2.05392 | -62.48503 | 37567 ft | 473 kts | 291° |
| 2026-05-08 11:17 | -2.04144 | -62.51506 | 37748 ft | 473 kts | 291° |
| 2026-05-08 11:17 | -2.02881 | -62.54545 | 37919 ft | 473 kts | 291° |
| 2026-05-08 11:17 | -2.01615 | -62.57594 | 37948 ft | 473 kts | 291° |
| 2026-05-08 11:18 | -1.99077 | -62.63587 | 37950 ft | 468 kts | 291° |
| 2026-05-08 11:18 | -1.96510 | -62.69563 | 37950 ft | 467 kts | 291° |
| 2026-05-08 11:19 | -1.93947 | -62.75541 | 37951 ft | 467 kts | 291° |
| 2026-05-08 11:19 | -1.91390 | -62.81523 | 37955 ft | 467 kts | 291° |
| 2026-05-08 11:20 | -1.88853 | -62.87463 | 37949 ft | 466 kts | 291° |
| 2026-05-08 11:20 | -1.86307 | -62.93425 | 37954 ft | 465 kts | 291° |
| 2026-05-08 11:21 | -1.83762 | -62.99383 | 37952 ft | 465 kts | 291° |
| 2026-05-08 11:21 | -1.81230 | -63.05309 | 37948 ft | 465 kts | 291° |
| 2026-05-08 11:22 | -1.78702 | -63.11228 | 37957 ft | 465 kts | 291° |
| 2026-05-08 11:22 | -1.76161 | -63.17172 | 37954 ft | 464 kts | 291° |
| 2026-05-08 11:23 | -1.73580 | -63.23087 | 37959 ft | 463 kts | 295° |
| 2026-05-08 11:23 | -1.70596 | -63.28762 | 37958 ft | 464 kts | 296° |
| 2026-05-08 11:24 | -1.67500 | -63.34442 | 37958 ft | 464 kts | 296° |
| 2026-05-08 11:24 | -1.64392 | -63.40108 | 37952 ft | 464 kts | 296° |
| 2026-05-08 11:25 | -1.61307 | -63.45744 | 37958 ft | 464 kts | 296° |
| 2026-05-08 11:25 | -1.58212 | -63.51410 | 37957 ft | 463 kts | 296° |
| 2026-05-08 11:26 | -1.55124 | -63.57066 | 37958 ft | 463 kts | 296° |
| 2026-05-08 11:26 | -1.52053 | -63.62690 | 37958 ft | 463 kts | 296° |
| 2026-05-08 11:27 | -1.48965 | -63.68344 | 37954 ft | 463 kts | 296° |
| 2026-05-08 11:27 | -1.45898 | -63.73961 | 37955 ft | 463 kts | 296° |
| 2026-05-08 11:28 | -1.42812 | -63.79611 | 37959 ft | 462 kts | 296° |
| 2026-05-08 11:28 | -1.39744 | -63.85226 | 37958 ft | 462 kts | 296° |
| 2026-05-08 11:29 | -1.36661 | -63.90870 | 37955 ft | 462 kts | 296° |
| 2026-05-08 11:29 | -1.33571 | -63.96525 | 37959 ft | 463 kts | 296° |
| 2026-05-08 11:30 | -1.30477 | -64.02189 | 37957 ft | 463 kts | 296° |
| 2026-05-08 11:30 | -1.27399 | -64.07821 | 37960 ft | 464 kts | 297° |
| 2026-05-08 11:31 | -1.24298 | -64.13496 | 37956 ft | 464 kts | 297° |
| 2026-05-08 11:31 | -1.21218 | -64.19133 | 37949 ft | 464 kts | 297° |
| 2026-05-08 11:32 | -1.18120 | -64.24802 | 37959 ft | 464 kts | 297° |
| 2026-05-08 11:32 | -1.15035 | -64.30446 | 37958 ft | 464 kts | 297° |
| 2026-05-08 11:33 | -1.11933 | -64.36122 | 37945 ft | 464 kts | 297° |
| 2026-05-08 11:33 | -1.08834 | -64.41792 | 37957 ft | 464 kts | 297° |
| 2026-05-08 11:34 | -1.05751 | -64.47430 | 37955 ft | 464 kts | 297° |
| 2026-05-08 11:34 | -1.02665 | -64.53075 | 37957 ft | 464 kts | 297° |
| 2026-05-08 11:35 | -0.99567 | -64.58744 | 37959 ft | 464 kts | 297° |
| 2026-05-08 11:35 | -0.96989 | -64.63458 | 37958 ft | 464 kts | 297° |
| 2026-05-08 11:36 | -0.93384 | -64.70052 | 37957 ft | 464 kts | 297° |
| 2026-05-08 11:36 | -0.90783 | -64.74810 | 37955 ft | 464 kts | 297° |
| 2026-05-08 11:37 | -0.87699 | -64.80449 | 37957 ft | 464 kts | 297° |
| 2026-05-08 11:37 | -0.84609 | -64.86100 | 37956 ft | 464 kts | 297° |
| 2026-05-08 11:38 | -0.81503 | -64.91779 | 37963 ft | 464 kts | 297° |
| 2026-05-08 11:38 | -0.78399 | -64.97457 | 37963 ft | 467 kts | 296° |
| 2026-05-08 11:39 | -0.75259 | -65.03200 | 37962 ft | 475 kts | 296° |
| 2026-05-08 11:39 | -0.72087 | -65.09002 | 37957 ft | 482 kts | 296° |
| 2026-05-08 11:40 | -0.68847 | -65.14927 | 37959 ft | 486 kts | 296° |
| 2026-05-08 11:40 | -0.65614 | -65.20881 | 37955 ft | 485 kts | 295° |
| 2026-05-08 11:41 | -0.62543 | -65.26832 | 37962 ft | 484 kts | 294° |
| 2026-05-08 11:41 | -0.59483 | -65.32825 | 37961 ft | 483 kts | 294° |
| 2026-05-08 11:42 | -0.56410 | -65.38802 | 37960 ft | 482 kts | 295° |
| 2026-05-08 11:42 | -0.53351 | -65.44734 | 37959 ft | 482 kts | 295° |
| 2026-05-08 11:43 | -0.50264 | -65.50704 | 37961 ft | 482 kts | 295° |
| 2026-05-08 11:43 | -0.47183 | -65.56659 | 37962 ft | 482 kts | 295° |
| 2026-05-08 11:44 | -0.44117 | -65.62588 | 37955 ft | 482 kts | 295° |
| 2026-05-08 11:44 | -0.41031 | -65.68559 | 37959 ft | 483 kts | 295° |
| 2026-05-08 11:45 | -0.37968 | -65.74498 | 37954 ft | 483 kts | 295° |
| 2026-05-08 11:45 | -0.34872 | -65.80483 | 37956 ft | 483 kts | 295° |
| 2026-05-08 11:46 | -0.31804 | -65.86416 | 37958 ft | 483 kts | 295° |
| 2026-05-08 11:46 | -0.28720 | -65.92381 | 37956 ft | 483 kts | 295° |
| 2026-05-08 11:47 | -0.25637 | -65.98347 | 37959 ft | 483 kts | 295° |
| 2026-05-08 11:47 | -0.22591 | -66.04236 | 37958 ft | 468 kts | 295° |
| 2026-05-08 11:48 | -0.19634 | -66.09957 | 37958 ft | 464 kts | 295° |
| 2026-05-08 11:48 | -0.16667 | -66.15702 | 37958 ft | 465 kts | 295° |
| 2026-05-08 11:49 | -0.13712 | -66.21422 | 37958 ft | 465 kts | 295° |
| 2026-05-08 11:49 | -0.10740 | -66.27165 | 37962 ft | 465 kts | 295° |
| 2026-05-08 11:50 | -0.07761 | -66.32932 | 37959 ft | 466 kts | 295° |
| 2026-05-08 11:50 | -0.04779 | -66.38706 | 37960 ft | 466 kts | 295° |
| 2026-05-08 11:51 | -0.01816 | -66.44441 | 37960 ft | 466 kts | 295° |
| 2026-05-08 11:51 | 0.01165 | -66.50209 | 37961 ft | 466 kts | 295° |
| 2026-05-08 11:52 | 0.04123 | -66.55933 | 37961 ft | 465 kts | 295° |
| 2026-05-08 11:52 | 0.07098 | -66.61689 | 37960 ft | 465 kts | 295° |
| 2026-05-08 11:53 | 0.10053 | -66.67408 | 37958 ft | 465 kts | 295° |
| 2026-05-08 11:53 | 0.13029 | -66.73166 | 37958 ft | 465 kts | 295° |
| 2026-05-08 11:54 | 0.16004 | -66.78924 | 37960 ft | 465 kts | 295° |
| 2026-05-08 11:54 | 0.18964 | -66.84652 | 37960 ft | 465 kts | 295° |
| 2026-05-08 11:55 | 0.21937 | -66.90404 | 37965 ft | 465 kts | 295° |
| 2026-05-08 11:55 | 0.24892 | -66.96122 | 37964 ft | 465 kts | 295° |
| 2026-05-08 11:56 | 0.27866 | -67.01878 | 37963 ft | 464 kts | 295° |
| 2026-05-08 11:56 | 0.30835 | -67.07623 | 37961 ft | 465 kts | 295° |
| 2026-05-08 11:57 | 0.33781 | -67.13325 | 37961 ft | 465 kts | 295° |
| 2026-05-08 11:57 | 0.36754 | -67.19078 | 37964 ft | 464 kts | 295° |
| 2026-05-08 11:58 | 0.39698 | -67.24772 | 37960 ft | 462 kts | 295° |
| 2026-05-08 11:58 | 0.42658 | -67.30497 | 37958 ft | 462 kts | 295° |
| 2026-05-08 11:59 | 0.47068 | -67.39032 | 37961 ft | 462 kts | 295° |
| 2026-05-08 11:59 | 0.50021 | -67.44744 | 37958 ft | 462 kts | 295° |
| 2026-05-08 12:00 | 0.52970 | -67.50453 | 37960 ft | 462 kts | 295° |
| 2026-05-08 12:00 | 0.55901 | -67.56123 | 37958 ft | 462 kts | 295° |
| 2026-05-08 12:01 | 0.58851 | -67.61831 | 37958 ft | 461 kts | 295° |
| 2026-05-08 12:01 | 0.61783 | -67.67506 | 37956 ft | 461 kts | 295° |
| 2026-05-08 12:02 | 0.64733 | -67.73214 | 37955 ft | 461 kts | 295° |
| 2026-05-08 12:02 | 0.67662 | -67.78884 | 37955 ft | 461 kts | 295° |
| 2026-05-08 12:03 | 0.70606 | -67.84581 | 37955 ft | 461 kts | 295° |
| 2026-05-08 12:03 | 0.73553 | -67.90284 | 37955 ft | 461 kts | 295° |
| 2026-05-08 12:04 | 0.76510 | -67.96008 | 37952 ft | 462 kts | 295° |
| 2026-05-08 12:04 | 0.79443 | -68.01684 | 37957 ft | 462 kts | 295° |
| 2026-05-08 12:05 | 0.82393 | -68.07394 | 37958 ft | 462 kts | 295° |
| 2026-05-08 12:05 | 0.85325 | -68.13070 | 37958 ft | 462 kts | 295° |
| 2026-05-08 12:06 | 0.88279 | -68.18788 | 37959 ft | 462 kts | 295° |
| 2026-05-08 12:06 | 0.91229 | -68.24499 | 37952 ft | 461 kts | 295° |
| 2026-05-08 12:07 | 0.94156 | -68.30165 | 37951 ft | 461 kts | 295° |
| 2026-05-08 12:07 | 0.97093 | -68.35852 | 37951 ft | 461 kts | 295° |
| 2026-05-08 12:08 | 1.00036 | -68.41551 | 37955 ft | 461 kts | 295° |
| 2026-05-08 12:08 | 1.02987 | -68.47265 | 37956 ft | 461 kts | 295° |
| 2026-05-08 12:09 | 1.05913 | -68.52930 | 37953 ft | 461 kts | 295° |
| 2026-05-08 12:09 | 1.08859 | -68.58634 | 37951 ft | 461 kts | 295° |
| 2026-05-08 12:10 | 1.11784 | -68.64300 | 37952 ft | 460 kts | 295° |
| 2026-05-08 12:10 | 1.14723 | -68.69991 | 37953 ft | 460 kts | 295° |
| 2026-05-08 12:11 | 1.17648 | -68.75657 | 37953 ft | 461 kts | 295° |
| 2026-05-08 12:11 | 1.20601 | -68.81376 | 37953 ft | 461 kts | 295° |
| 2026-05-08 12:12 | 1.23524 | -68.87038 | 37956 ft | 460 kts | 295° |
| 2026-05-08 12:12 | 1.26462 | -68.92730 | 37955 ft | 459 kts | 295° |
| 2026-05-08 12:13 | 1.29383 | -68.98388 | 37953 ft | 459 kts | 295° |
| 2026-05-08 12:13 | 1.32316 | -69.04071 | 37952 ft | 459 kts | 295° |
| 2026-05-08 12:14 | 1.35248 | -69.09753 | 37955 ft | 459 kts | 295° |
| 2026-05-08 12:14 | 1.38164 | -69.15402 | 37955 ft | 459 kts | 295° |
| 2026-05-08 12:15 | 1.41098 | -69.21089 | 37955 ft | 459 kts | 295° |
| 2026-05-08 12:15 | 1.44026 | -69.26761 | 37955 ft | 459 kts | 295° |
| 2026-05-08 12:16 | 1.46938 | -69.32407 | 37956 ft | 459 kts | 295° |
| 2026-05-08 12:16 | 1.49864 | -69.38077 | 37954 ft | 459 kts | 295° |
| 2026-05-08 12:17 | 1.52793 | -69.43755 | 37959 ft | 459 kts | 295° |
| 2026-05-08 12:17 | 1.55705 | -69.49400 | 37960 ft | 459 kts | 295° |
| 2026-05-08 12:18 | 1.58634 | -69.55078 | 37959 ft | 459 kts | 296° |
| 2026-05-08 12:18 | 1.61547 | -69.60727 | 37956 ft | 458 kts | 296° |
| 2026-05-08 12:19 | 1.64477 | -69.66409 | 37959 ft | 458 kts | 296° |
| 2026-05-08 12:19 | 1.67389 | -69.72055 | 37958 ft | 458 kts | 296° |
| 2026-05-08 12:20 | 1.70298 | -69.77698 | 37960 ft | 458 kts | 296° |
| 2026-05-08 12:20 | 1.73260 | -69.83377 | 37957 ft | 459 kts | 296° |
| 2026-05-08 12:21 | 1.76228 | -69.88993 | 37961 ft | 459 kts | 296° |
| 2026-05-08 12:21 | 1.79207 | -69.94637 | 37961 ft | 459 kts | 296° |
| 2026-05-08 12:22 | 1.82188 | -70.00297 | 37961 ft | 459 kts | 296° |
| 2026-05-08 12:22 | 1.85145 | -70.05920 | 37960 ft | 459 kts | 296° |
| 2026-05-08 12:23 | 1.87619 | -70.10624 | 37958 ft | 459 kts | 296° |
| 2026-05-08 12:23 | 1.91080 | -70.17207 | 37958 ft | 459 kts | 296° |
| 2026-05-08 12:24 | 1.93559 | -70.21919 | 37961 ft | 459 kts | 296° |
| 2026-05-08 12:24 | 1.96522 | -70.27556 | 37959 ft | 459 kts | 296° |
| 2026-05-08 12:25 | 1.99498 | -70.33217 | 37957 ft | 459 kts | 296° |
| 2026-05-08 12:25 | 2.02474 | -70.38878 | 37957 ft | 459 kts | 296° |
| 2026-05-08 12:26 | 2.05432 | -70.44506 | 37960 ft | 459 kts | 296° |
| 2026-05-08 12:26 | 2.08410 | -70.50172 | 37960 ft | 459 kts | 296° |
| 2026-05-08 12:27 | 2.11364 | -70.55794 | 37959 ft | 459 kts | 296° |
| 2026-05-08 12:27 | 2.14340 | -70.61457 | 37960 ft | 460 kts | 296° |
| 2026-05-08 12:28 | 2.17314 | -70.67117 | 37963 ft | 460 kts | 296° |
| 2026-05-08 12:28 | 2.20292 | -70.72785 | 37964 ft | 460 kts | 296° |
| 2026-05-08 12:29 | 2.23267 | -70.78449 | 37960 ft | 460 kts | 296° |
| 2026-05-08 12:29 | 2.26246 | -70.84122 | 37960 ft | 460 kts | 296° |
| 2026-05-08 12:30 | 2.29602 | -70.89550 | 37962 ft | 464 kts | 308° |
| 2026-05-08 12:30 | 2.34334 | -70.93981 | 37963 ft | 468 kts | 320° |
| 2026-05-08 12:31 | 2.39517 | -70.97950 | 37966 ft | 469 kts | 322° |
| 2026-05-08 12:31 | 2.44733 | -71.01816 | 37961 ft | 469 kts | 322° |
| 2026-05-08 12:32 | 2.49974 | -71.05724 | 37964 ft | 469 kts | 322° |
| 2026-05-08 12:32 | 2.55198 | -71.09650 | 37964 ft | 469 kts | 321° |
| 2026-05-08 12:33 | 2.60395 | -71.13569 | 37963 ft | 470 kts | 321° |
| 2026-05-08 12:33 | 2.65622 | -71.17512 | 37965 ft | 470 kts | 321° |
| 2026-05-08 12:34 | 2.70827 | -71.21437 | 37964 ft | 470 kts | 321° |
| 2026-05-08 12:34 | 2.76035 | -71.25363 | 37966 ft | 470 kts | 321° |
| 2026-05-08 12:35 | 2.81258 | -71.29302 | 37967 ft | 470 kts | 321° |
| 2026-05-08 12:35 | 2.86457 | -71.33224 | 37966 ft | 470 kts | 321° |
| 2026-05-08 12:36 | 2.91689 | -71.37170 | 37966 ft | 470 kts | 321° |
| 2026-05-08 12:36 | 2.96885 | -71.41089 | 37967 ft | 471 kts | 321° |
| 2026-05-08 12:37 | 3.02131 | -71.45047 | 37965 ft | 471 kts | 321° |
| 2026-05-08 12:37 | 3.07379 | -71.49007 | 37968 ft | 471 kts | 321° |
| 2026-05-08 12:38 | 3.12584 | -71.52935 | 37968 ft | 471 kts | 321° |
| 2026-05-08 12:38 | 3.17832 | -71.56896 | 37967 ft | 471 kts | 322° |
| 2026-05-08 12:39 | 3.23045 | -71.60831 | 37965 ft | 471 kts | 322° |
| 2026-05-08 12:39 | 3.28280 | -71.64783 | 37965 ft | 471 kts | 322° |
| 2026-05-08 12:40 | 3.33501 | -71.68725 | 37964 ft | 471 kts | 322° |
| 2026-05-08 12:40 | 3.38749 | -71.72688 | 37962 ft | 471 kts | 322° |
| 2026-05-08 12:41 | 3.43985 | -71.76643 | 37967 ft | 471 kts | 322° |
| 2026-05-08 12:41 | 3.49192 | -71.80576 | 37967 ft | 471 kts | 322° |
| 2026-05-08 12:42 | 3.54433 | -71.84535 | 37968 ft | 471 kts | 322° |
| 2026-05-08 12:42 | 3.59665 | -71.88488 | 37965 ft | 471 kts | 322° |
| 2026-05-08 12:43 | 3.64876 | -71.92426 | 37964 ft | 471 kts | 322° |
| 2026-05-08 12:43 | 3.70106 | -71.96379 | 37962 ft | 469 kts | 322° |
| 2026-05-08 12:44 | 3.75300 | -72.00305 | 37964 ft | 469 kts | 322° |
| 2026-05-08 12:44 | 3.80525 | -72.04256 | 37960 ft | 469 kts | 322° |
| 2026-05-08 12:45 | 3.85713 | -72.08179 | 37961 ft | 469 kts | 322° |
| 2026-05-08 12:45 | 3.90930 | -72.12125 | 37964 ft | 469 kts | 322° |
| 2026-05-08 12:46 | 3.96465 | -72.15610 | 37958 ft | 470 kts | 329° |
| 2026-05-08 12:46 | 4.02183 | -72.18730 | 37958 ft | 471 kts | 330° |
| 2026-05-08 12:47 | 4.07995 | -72.21825 | 37954 ft | 473 kts | 330° |
| 2026-05-08 12:47 | 4.13824 | -72.24928 | 37953 ft | 473 kts | 330° |
| 2026-05-08 12:48 | 4.19592 | -72.28012 | 37963 ft | 471 kts | 330° |
| 2026-05-08 12:48 | 4.25379 | -72.31112 | 37961 ft | 470 kts | 330° |
| 2026-05-08 12:49 | 4.31127 | -72.34194 | 37958 ft | 470 kts | 330° |
| 2026-05-08 12:49 | 4.36920 | -72.37299 | 37949 ft | 470 kts | 330° |
| 2026-05-08 12:50 | 4.42679 | -72.40387 | 37970 ft | 471 kts | 330° |
| 2026-05-08 12:50 | 4.48432 | -72.43471 | 37968 ft | 471 kts | 330° |
| 2026-05-08 12:51 | 4.57113 | -72.48126 | 37963 ft | 471 kts | 330° |
| 2026-05-08 12:52 | 4.62871 | -72.51215 | 37958 ft | 471 kts | 330° |
| 2026-05-08 12:52 | 4.71530 | -72.55861 | 37981 ft | 471 kts | 330° |
| 2026-05-08 12:53 | 4.77320 | -72.58968 | 37979 ft | 472 kts | 330° |
| 2026-05-08 12:53 | 4.83121 | -72.62082 | 37977 ft | 471 kts | 330° |
| 2026-05-08 12:54 | 4.88867 | -72.65167 | 37979 ft | 470 kts | 330° |
| 2026-05-08 12:54 | 4.94632 | -72.68262 | 38012 ft | 470 kts | 330° |
| 2026-05-08 12:55 | 5.00403 | -72.71362 | 38020 ft | 470 kts | 330° |
| 2026-05-08 12:55 | 5.06142 | -72.74446 | 38020 ft | 470 kts | 330° |
| 2026-05-08 12:56 | 5.11919 | -72.77550 | 38045 ft | 469 kts | 330° |
| 2026-05-08 12:56 | 5.17640 | -72.80622 | 38049 ft | 468 kts | 330° |
| 2026-05-08 12:57 | 5.23393 | -72.83712 | 38092 ft | 468 kts | 330° |
| 2026-05-08 12:57 | 5.29111 | -72.86788 | 38123 ft | 468 kts | 330° |
| 2026-05-08 12:58 | 5.34861 | -72.89881 | 38118 ft | 468 kts | 330° |
| 2026-05-08 12:58 | 5.40577 | -72.92957 | 38137 ft | 468 kts | 330° |
| 2026-05-08 12:59 | 5.46323 | -72.96048 | 38167 ft | 467 kts | 330° |
| 2026-05-08 12:59 | 5.52027 | -72.99117 | 38169 ft | 468 kts | 330° |
| 2026-05-08 13:00 | 5.57784 | -73.02217 | 38171 ft | 468 kts | 330° |
| 2026-05-08 13:00 | 5.63507 | -73.05298 | 38173 ft | 468 kts | 330° |
| 2026-05-08 13:01 | 5.69265 | -73.08397 | 38146 ft | 469 kts | 330° |
| 2026-05-08 13:01 | 5.74992 | -73.11482 | 38150 ft | 469 kts | 330° |
| 2026-05-08 13:02 | 5.80745 | -73.14581 | 38149 ft | 469 kts | 330° |
| 2026-05-08 13:02 | 5.86501 | -73.17682 | 38109 ft | 469 kts | 330° |
| 2026-05-08 13:03 | 5.92227 | -73.20769 | 38108 ft | 469 kts | 330° |
| 2026-05-08 13:03 | 5.97980 | -73.23870 | 38068 ft | 469 kts | 330° |
| 2026-05-08 13:04 | 6.03708 | -73.26959 | 38065 ft | 469 kts | 330° |
| 2026-05-08 13:04 | 6.09469 | -73.30066 | 38063 ft | 469 kts | 330° |
| 2026-05-08 13:05 | 6.15188 | -73.33152 | 38024 ft | 469 kts | 330° |
| 2026-05-08 13:05 | 6.20956 | -73.36263 | 38027 ft | 469 kts | 330° |
| 2026-05-08 13:06 | 6.26710 | -73.39369 | 38024 ft | 467 kts | 330° |
| 2026-05-08 13:06 | 6.32403 | -73.42443 | 37993 ft | 467 kts | 330° |
| 2026-05-08 13:07 | 6.38132 | -73.45537 | 37992 ft | 467 kts | 330° |
| 2026-05-08 13:07 | 6.43842 | -73.48615 | 37977 ft | 467 kts | 330° |
| 2026-05-08 13:08 | 6.49569 | -73.51711 | 37965 ft | 467 kts | 330° |
| 2026-05-08 13:08 | 6.55306 | -73.54815 | 37969 ft | 467 kts | 330° |
| 2026-05-08 13:09 | 6.61013 | -73.57902 | 37950 ft | 470 kts | 330° |
| 2026-05-08 13:09 | 6.66812 | -73.61038 | 37948 ft | 472 kts | 330° |
| 2026-05-08 13:10 | 6.72595 | -73.64201 | 37934 ft | 472 kts | 328° |
| 2026-05-08 13:10 | 6.77670 | -73.68288 | 37912 ft | 471 kts | 311° |
| 2026-05-08 13:11 | 6.81232 | -73.73786 | 37911 ft | 470 kts | 291° |
| 2026-05-08 13:11 | 6.82725 | -73.80149 | 37913 ft | 468 kts | 271° |
| 2026-05-08 13:12 | 6.82476 | -73.83405 | 37906 ft | 466 kts | 257° |
| 2026-05-08 13:12 | 6.81674 | -73.86526 | 37906 ft | 466 kts | 253° |
| 2026-05-08 13:12 | 6.79807 | -73.92792 | 37909 ft | 468 kts | 253° |
| 2026-05-08 13:13 | 6.77926 | -73.99086 | 37910 ft | 468 kts | 253° |
| 2026-05-08 13:13 | 6.76060 | -74.05350 | 37910 ft | 470 kts | 253° |
| 2026-05-08 13:14 | 6.74178 | -74.11675 | 37904 ft | 472 kts | 253° |
| 2026-05-08 13:14 | 6.72612 | -74.16938 | 37905 ft | 472 kts | 253° |
| 2026-05-08 13:15 | 6.70731 | -74.23260 | 37905 ft | 472 kts | 253° |
| 2026-05-08 13:15 | 6.68538 | -74.30623 | 37904 ft | 472 kts | 253° |
| 2026-05-08 13:16 | 6.66967 | -74.35895 | 37934 ft | 472 kts | 253° |
| 2026-05-08 13:16 | 6.65084 | -74.42212 | 37920 ft | 470 kts | 253° |
| 2026-05-08 13:17 | 6.63221 | -74.48459 | 37919 ft | 468 kts | 253° |
| 2026-05-08 13:17 | 6.61346 | -74.54744 | 37938 ft | 468 kts | 253° |
| 2026-05-08 13:18 | 6.59230 | -74.60955 | 37954 ft | 469 kts | 251° |
| 2026-05-08 13:18 | 6.57026 | -74.67119 | 37981 ft | 472 kts | 251° |
| 2026-05-08 13:19 | 6.54824 | -74.73357 | 37966 ft | 473 kts | 251° |
| 2026-05-08 13:19 | 6.52630 | -74.79599 | 37999 ft | 472 kts | 251° |
| 2026-05-08 13:20 | 6.50451 | -74.85809 | 38002 ft | 472 kts | 251° |
| 2026-05-08 13:20 | 6.48266 | -74.92031 | 38003 ft | 473 kts | 251° |
| 2026-05-08 13:21 | 6.46074 | -74.98275 | 38002 ft | 472 kts | 251° |
| 2026-05-08 13:21 | 6.43897 | -75.04472 | 38002 ft | 472 kts | 251° |
| 2026-05-08 13:22 | 6.41702 | -75.10712 | 38016 ft | 471 kts | 250° |
| 2026-05-08 13:22 | 6.40296 | -75.13688 | 38032 ft | 471 kts | 237° |
| 2026-05-08 13:22 | 6.38191 | -75.16148 | 38015 ft | 471 kts | 221° |
| 2026-05-08 13:23 | 6.35471 | -75.17988 | 37735 ft | 469 kts | 207° |
| 2026-05-08 13:23 | 6.32410 | -75.19083 | 36859 ft | 466 kts | 194° |
| 2026-05-08 13:23 | 6.29227 | -75.19741 | 35521 ft | 465 kts | 192° |
| 2026-05-08 13:23 | 6.26062 | -75.20391 | 34175 ft | 464 kts | 193° |
| 2026-05-08 13:24 | 6.22949 | -75.21102 | 32504 ft | 464 kts | 194° |
| 2026-05-08 13:24 | 6.19792 | -75.21882 | 30695 ft | 468 kts | 194° |
| 2026-05-08 13:24 | 6.16620 | -75.22703 | 28633 ft | 472 kts | 194° |
| 2026-05-08 13:24 | 6.13434 | -75.23547 | 26656 ft | 473 kts | 195° |
| 2026-05-08 13:25 | 6.10269 | -75.24397 | 24981 ft | 469 kts | 194° |
| 2026-05-08 13:25 | 6.07176 | -75.25233 | 24113 ft | 446 kts | 194° |
| 2026-05-08 13:25 | 6.04271 | -75.26021 | 23484 ft | 419 kts | 194° |
| 2026-05-08 13:25 | 6.01529 | -75.26766 | 22856 ft | 396 kts | 194° |
| 2026-05-08 13:26 | 5.98939 | -75.27470 | 22326 ft | 375 kts | 194° |
| 2026-05-08 13:26 | 5.96509 | -75.28130 | 21857 ft | 357 kts | 195° |
| 2026-05-08 13:26 | 5.94165 | -75.28768 | 21431 ft | 339 kts | 194° |
| 2026-05-08 13:26 | 5.91934 | -75.29375 | 21037 ft | 324 kts | 194° |
| 2026-05-08 13:27 | 5.89811 | -75.30050 | 20541 ft | 315 kts | 206° |
| 2026-05-08 13:27 | 5.88159 | -75.31389 | 19960 ft | 310 kts | 235° |
| 2026-05-08 13:27 | 5.87369 | -75.33368 | 19377 ft | 306 kts | 264° |
| 2026-05-08 13:27 | 5.87338 | -75.35489 | 18868 ft | 302 kts | 272° |
| 2026-05-08 13:28 | 5.87421 | -75.37588 | 18351 ft | 299 kts | 271° |
| 2026-05-08 13:28 | 5.87560 | -75.39664 | 17727 ft | 296 kts | 282° |
| 2026-05-08 13:28 | 5.88425 | -75.41481 | 17091 ft | 293 kts | 313° |
| 2026-05-08 13:28 | 5.90100 | -75.42571 | 16481 ft | 288 kts | 346° |
| 2026-05-08 13:29 | 5.92063 | -75.42701 | 16006 ft | 280 kts | 5° |
| 2026-05-08 13:29 | 5.93962 | -75.42591 | 15751 ft | 267 kts | 358° |
| 2026-05-08 13:29 | 5.95738 | -75.43087 | 15255 ft | 268 kts | 330° |
| 2026-05-08 13:29 | 5.97094 | -75.44369 | 14703 ft | 271 kts | 302° |
| 2026-05-08 13:30 | 5.97709 | -75.46133 | 14144 ft | 273 kts | 274° |
| 2026-05-08 13:30 | 5.97451 | -75.48009 | 13526 ft | 273 kts | 248° |
| 2026-05-08 13:30 | 5.96600 | -75.49707 | 12893 ft | 273 kts | 238° |
| 2026-05-08 13:30 | 5.95399 | -75.51153 | 12345 ft | 267 kts | 214° |
| 2026-05-08 13:31 | 5.93735 | -75.51856 | 11887 ft | 257 kts | 185° |
| 2026-05-08 13:31 | 5.91985 | -75.51652 | 11437 ft | 254 kts | 155° |
| 2026-05-08 13:31 | 5.90581 | -75.50604 | 11134 ft | 252 kts | 126° |
| 2026-05-08 13:31 | 5.89809 | -75.49075 | 11032 ft | 246 kts | 109° |
| 2026-05-08 13:32 | 5.89409 | -75.47405 | 10920 ft | 251 kts | 94° |
| 2026-05-08 13:32 | 5.89563 | -75.45558 | 10942 ft | 280 kts | 73° |
| 2026-05-08 13:32 | 5.90622 | -75.43894 | 10971 ft | 290 kts | 41° |
| 2026-05-08 13:32 | 5.92395 | -75.43032 | 10982 ft | 282 kts | 12° |
| 2026-05-08 13:33 | 5.94309 | -75.42836 | 11005 ft | 270 kts | 6° |
| 2026-05-08 13:33 | 5.96128 | -75.42717 | 10999 ft | 253 kts | 6° |
| 2026-05-08 13:33 | 5.97847 | -75.42568 | 10705 ft | 245 kts | 7° |
| 2026-05-08 13:33 | 5.99559 | -75.42378 | 10172 ft | 249 kts | 8° |
| 2026-05-08 13:34 | 6.01302 | -75.42230 | 9584 ft | 253 kts | 3° |
| 2026-05-08 13:34 | 6.03024 | -75.42228 | 9338 ft | 243 kts | 1° |
| 2026-05-08 13:34 | 6.04649 | -75.42246 | 9286 ft | 223 kts | 1° |
| 2026-05-08 13:34 | 6.06141 | -75.42247 | 9127 ft | 207 kts | 1° |
| 2026-05-08 13:35 | 6.07547 | -75.42257 | 8857 ft | 196 kts | 1° |
| 2026-05-08 13:35 | 6.08882 | -75.42267 | 8493 ft | 187 kts | 2° |
| 2026-05-08 13:35 | 6.10157 | -75.42272 | 8126 ft | 180 kts | 1° |
| 2026-05-08 13:35 | 6.11369 | -75.42279 | 7779 ft | 172 kts | 1° |
| 2026-05-08 13:36 | 6.12525 | -75.42281 | 7524 ft | 158 kts | 1° |
| 2026-05-08 13:36 | 6.13596 | -75.42289 | 7257 ft | 152 kts | 0° |
| 2026-05-08 13:36 | 6.14631 | -75.42305 | 7055 ft | 149 kts | 360° |
| 2026-05-08 13:36 | 6.15657 | -75.42304 | 6984 ft | 137 kts | 359° |
| 2026-05-08 13:37 | 6.16325 | -75.42308 | 6978 ft | 54 kts | 359° |
| 2026-05-08 13:37 | 6.16666 | -75.42312 | 6991 ft | 46 kts | 359° |
| 2026-05-08 13:37 | 6.16920 | -75.42319 | 7014 ft | 12 kts | 349° |
| 2026-05-08 13:37 | 6.16991 | -75.42347 | 7017 ft | 10 kts | 336° |
| 2026-05-08 13:38 | 6.17048 | -75.42377 | 7020 ft | 10 kts | 330° |
| 2026-05-08 13:38 | 6.17112 | -75.42414 | 7018 ft | 12 kts | 329° |
| 2026-05-08 13:38 | 6.17186 | -75.42461 | 7020 ft | 15 kts | 327° |
| 2026-05-08 13:38 | 6.17294 | -75.42488 | 7023 ft | 16 kts | 358° |
| 2026-05-08 13:39 | 6.17396 | -75.42489 | 7023 ft | 13 kts | 0° |
| 2026-05-08 13:39 | 6.17483 | -75.42488 | 7029 ft | 12 kts | 359° |
| 2026-05-08 13:39 | 6.17560 | -75.42511 | 7030 ft | 11 kts | 301° |
| 2026-05-08 13:39 | 6.17588 | -75.42596 | 7027 ft | 15 kts | 301° |
| 2026-05-08 13:40 | 6.17593 | -75.42664 | 7021 ft | 0 kts | 269° |
| 2026-05-08 13:40 | 6.17592 | -75.42675 | 7021 ft | 0 kts | 269° |